• Join FlightAware (Why Join?)
  • Login
  • US Flag 
11:29PM EST


 

Airport Tracker/Info


-or-


 

Live Flight TrackerFlight Track Log ✈ N210FT ✈ 18-Sep-2013 ✈ F45 - KISM

Flight Track Log - Related Links

Times and Time Zones

All times are in EDT time to prevent confusion due to time zone crossing. See the N210FT flight status page for this flight to view local times or setup timezone preferences in your user account.

Time Position Orientation Groundspeed Altitude Reporting Facility
EDT Latitude Longitude Course Direction KTS MPH feet Rate Location/Type
01:17PM 27.0222 -80.5222 324° Northwest 104 120 1,500  Level Miami Center
01:18PM 27.0514 -80.5278 350° North 119 137 1,500  Level Miami Center
01:19PM 27.0803 -80.5425 336° Northwest 119 137 1,500  Level Miami Center
01:21PM 27.1216 -80.5726 325° Northwest  Level Estimated
01:22PM 27.1583 -80.5942 324° Northwest 109 125 1,500  Level Miami Center
01:23PM 27.4172 -80.6949 324° Northwest  Level FlightAware Approximate
01:24PM 27.2057 -80.6094 344° North  Level FlightAware Approximate
01:25PM 27.2342 -80.6481 344° North 109 125 1,500  Level Miami Center
01:26PM 27.2586 -80.6697 322° Northwest 109 125 1,500  Level Miami Center
01:27PM 27.2831 -80.6939 319° Northwest 109 125 1,500 -60 Level Miami Center
01:28PM 27.3355 -80.7293 324° Northwest  Level Estimated
01:28PM 27.3075 -80.7133 325° Northwest 109 125 1,400  Level Miami Center
01:29PM 27.3364 -80.7261 339° North 109 125 1,400  Level Miami Center
01:30PM 27.3636 -80.7294 354° North 104 120 1,500  Climbing Miami Center
01:31PM 27.3906 -80.7350 350° North 104 120 1,500 -60 Level Miami Center
01:32PM 27.4236 -80.7408 351° North 104 120 1,400 -60 Descending Miami Center
01:33PM 27.4486 -80.7417 358° North 98 113 1,400  Level Miami Center
01:34PM 27.4781 -80.7403 North 98 113 1,400  Level Miami Center
01:35PM 27.5031 -80.7433 354° North 98 113 1,400  Level Miami Center
01:36PM 27.5319 -80.7514 346° North 103 119 1,400  Level Miami Center
01:37PM 27.5611 -80.7572 350° North 103 119 1,400  Level Miami Center
01:38PM 27.5919 -80.7697 340° North 103 119 1,400  Level Miami Center
01:39PM 27.6208 -80.7825 339° North 103 119 1,500  Climbing Miami Center
01:40PM 27.6433 -80.8019 323° Northwest 103 119 1,400 -60 Descending Miami Center
01:41PM 27.6614 -80.8239 313° West 108 124 1,400  Level Miami Center
01:42PM 27.6878 -80.8528 316° Northwest 114 131 1,400  Level Miami Center
01:43PM 27.7100 -80.8817 311° West 114 131 1,400  Level Miami Center
01:44PM 27.7261 -80.9058 307° West 114 131 1,400  Level Miami Center
01:45PM 27.7483 -80.9278 319° Northwest 114 131 1,400  Level Miami Center
01:46PM 27.7728 -80.9519 319° Northwest 114 131 1,500  Climbing Miami Center
01:47PM 27.7994 -80.9694 330° Northwest 108 124 1,400 -60 Descending Miami Center
01:48PM 27.8261 -80.9844 334° Northwest 101 116 1,400  Level Miami Center
01:49PM 27.8467 -80.9992 328° Northwest 101 116 1,500  Climbing Miami Center
01:50PM 27.8731 -81.0167 330° Northwest 101 116 1,500 -60 Level Miami Center
01:53PM 27.9333 -81.0667 324° Northwest 108 124 1,400 -60 Descending Orlando TRACON
01:54PM 27.9500 -81.0833 319° Northwest 110 127 1,400  Level Orlando TRACON
01:55PM 27.9667 -81.1167 300° West 104 120 1,500  Climbing Orlando TRACON
01:56PM 28.0000 -81.1333 336° Northwest 107 123 1,500  Level Orlando TRACON
01:57PM 28.0167 -81.1500 319° Northwest 113 130 1,500  Level Orlando TRACON
01:58PM 28.0500 -81.1833 319° Northwest 112 129 1,500  Level Orlando TRACON
01:59PM 28.0667 -81.2000 319° Northwest 118 136 1,500 -60 Level Orlando TRACON
02:00PM 28.0833 -81.2333 300° West 119 137 1,400 -120 Descending Orlando TRACON
02:00PM 28.0833 -81.2667 270° West 125 144 1,300  Descending Orlando TRACON
02:01PM 28.1000 -81.3000 300° West 118 136 1,500  Climbing Orlando TRACON
02:02PM 28.1167 -81.3500 291° West 121 139 1,400 -60 Descending Orlando TRACON
02:03PM 28.1333 -81.3667 319° Northwest 117 135 1,400  Level Orlando TRACON
02:05PM 28.1500 -81.4167 291° West 115 132 1,400  Level Orlando TRACON
02:05PM 28.1667 -81.4333 319° Northwest 120 138 1,500 -60 Climbing Orlando TRACON
02:07PM 28.1667 -81.4833 270° West 117 135 1,300  Descending Orlando TRACON
02:08PM 28.1833 -81.5000 319° Northwest 108 124 1,500 -60 Climbing Orlando TRACON
02:09PM 28.2167 -81.5167 336° Northwest 91 105 1,200 -120 Descending Orlando TRACON
02:10PM 28.2333 -81.5000 41° Northeast 76 87 1,300 -120 Climbing Orlando TRACON
02:11PM 28.2500 -81.4833 41° Northeast 81 93 1,000 -480 Descending Orlando TRACON
02:11PM 28.2667 -81.4667 41° Northeast 87 100 500 -420 Descending Orlando TRACON
02:12PM 28.2833 -81.4500 41° Northeast 60 69 300 -240 Descending Orlando TRACON